Bradley International Airport
KBDL : now visible

Airfield :











YOU CAN JOIN US ON...

 
LOGIN :

Register | Disclaimer

   EN    FR    IT 

 









Legend :    VFR   Marginal VFR   IFR   Intensive IFR   Very Intensive IFR
Visi :
Ceiling :
>= 8 km
>= 3000ft
5 to 8 km
1000 to 3000 ft
1500m to 5 km
500 to 1000 ft
800 to 1500m
200 to 500 ft
< 800m
< 200 ft
Symbols :   Thunderstorms  Fog  Heavy snow  Heavy precipitations  Wind > 20 kt






- Airport Elevation : 173 ft
- IATA code : BDL


KBDL - Bradley International

CURRENT METAR :
  • 071951Z 33011KT 10SM SCT085 BKN250 19/M02 A2975 RMK AO2 SLP075 T01891022

EXPIRED METARs :
  • 071851Z 29008G19KT 10SM SCT085 BKN250 17/M02 A2979 RMK AO2 SLP087 T01721022
  • 071751Z 28010G18KT 10SM FEW080 SCT250 18/M03 A2982 RMK AO2 SLP099 T01781033 10183 20089 58029

TAF KBDL
Valid from the 07 at 20:00 until the 09 at 00:00 UTC


072029Z 0720/0824 33011KT P6SM SCT090 BKN250
FM080500 07003KT P6SM VCSH OVC050
FM080800 02005KT 4SM RA BR OVC010
FM081400 02004KT P6SM VCSH BKN015
FM081600 02004KT P6SM BKN035



MET'MAP, your aeronautical weather chart ! - Copyright ORBIFLY December 2007 - Disclaimer

ORBIFLY MET'MAP TEAM :

Programming & Development : Alexandra Zaïnal
Concept & original design : Baudouin d'Aumeries
Assistance for programming : Marc-Olivier Méhu
Technical & hardware support : Manuel Goepfert

Contact : metmap@orbifly.com




SOURCES & CREDITS :

   NOAA       Earth
Advisory